createdAt,value
2022-12-19T00:02:07.667Z,21.30
2022-12-19T00:04:36.300Z,21.50
2022-12-19T00:07:10.024Z,22.65
2022-12-19T00:09:39.491Z,21.05
2022-12-19T00:12:06.831Z,22.13
2022-12-19T00:14:35.886Z,22.08
2022-12-19T00:17:03.098Z,21.30
2022-12-19T00:19:54.524Z,21.95
2022-12-19T00:22:25.273Z,22.48
2022-12-19T00:24:52.287Z,21.83
2022-12-19T00:27:19.475Z,22.45
2022-12-19T00:29:46.571Z,22.10
2022-12-19T00:32:16.772Z,22.30
2022-12-19T00:34:44.027Z,23.02
2022-12-19T00:39:49.681Z,21.35
2022-12-19T00:42:16.866Z,22.38
2022-12-19T00:44:45.441Z,21.95
2022-12-19T00:47:12.884Z,21.13
2022-12-19T00:49:39.739Z,22.85
2022-12-19T00:52:09.096Z,20.58
2022-12-19T00:54:36.496Z,21.33
2022-12-19T00:57:05.541Z,21.35
2022-12-19T00:59:35.533Z,21.92
2022-12-19T01:02:03.623Z,19.30
2022-12-19T01:04:32.640Z,19.50
2022-12-19T01:07:09.554Z,19.20
2022-12-19T01:09:41.202Z,19.20
2022-12-19T01:12:30.539Z,19.35
2022-12-19T01:15:04.469Z,21.30
2022-12-19T01:17:44.209Z,20.15
2022-12-19T01:20:14.663Z,19.92
2022-12-19T01:22:44.736Z,21.05
2022-12-19T01:25:13.611Z,20.35
2022-12-19T01:27:47.556Z,20.98
2022-12-19T01:30:14.566Z,19.67
2022-12-19T01:35:13.412Z,17.98
2022-12-19T01:37:50.404Z,17.58
2022-12-19T01:40:17.471Z,19.45
2022-12-19T01:42:48.399Z,18.60
2022-12-19T01:45:33.762Z,19.38
2022-12-19T01:48:15.513Z,19.40
2022-12-19T01:51:00.973Z,19.48
2022-12-19T01:53:49.279Z,19.70
2022-12-19T01:56:19.639Z,19.33
2022-12-19T01:58:56.579Z,19.55
2022-12-19T02:01:33.212Z,19.65
2022-12-19T02:04:03.610Z,19.73
2022-12-19T02:06:31.370Z,18.83
2022-12-19T02:08:58.628Z,18.65
2022-12-19T02:11:25.547Z,19.10
2022-12-19T02:13:54.114Z,19.05
2022-12-19T02:16:31.187Z,19.73
2022-12-19T02:19:09.797Z,19.13
2022-12-19T02:21:55.965Z,19.63
2022-12-19T02:25:00.049Z,19.13
2022-12-19T02:27:42.191Z,18.60
2022-12-19T02:30:17.725Z,17.65
2022-12-19T02:33:00.071Z,19.50
2022-12-19T02:35:34.449Z,18.83
2022-12-19T02:38:13.489Z,18.45
2022-12-19T02:40:50.049Z,18.55
2022-12-19T02:43:24.104Z,20.52
2022-12-19T02:45:54.818Z,19.30
2022-12-19T02:48:24.396Z,20.30
2022-12-19T02:50:53.823Z,19.13
2022-12-19T02:56:11.275Z,15.57
2022-12-19T02:58:53.412Z,19.98
2022-12-19T03:01:40.240Z,21.17
2022-12-19T03:04:17.534Z,19.20
2022-12-19T03:06:53.947Z,20.35
2022-12-19T03:09:30.397Z,18.15
2022-12-19T03:12:03.380Z,18.67
2022-12-19T03:14:33.011Z,17.05
2022-12-19T03:17:08.191Z,19.00
2022-12-19T03:19:39.383Z,19.05
2022-12-19T03:22:08.086Z,18.77
2022-12-19T03:24:38.703Z,18.38
2022-12-19T03:27:13.530Z,17.15
2022-12-19T03:29:50.564Z,17.33
2022-12-19T03:32:23.217Z,17.90
2022-12-19T03:34:57.218Z,18.80
2022-12-19T03:37:28.727Z,17.25
2022-12-19T03:40:00.229Z,17.33
2022-12-19T03:42:53.279Z,18.02
2022-12-19T03:45:29.341Z,17.17
2022-12-19T03:48:04.191Z,16.80
2022-12-19T03:50:45.877Z,18.48
2022-12-19T03:53:28.797Z,19.77
2022-12-19T03:56:08.103Z,25.88
2022-12-19T03:58:45.537Z,30.48
2022-12-19T04:01:12.668Z,21.48
2022-12-19T04:03:42.077Z,21.65
2022-12-19T04:06:14.964Z,22.13
2022-12-19T04:08:45.634Z,20.33
2022-12-19T04:11:18.869Z,20.08
2022-12-19T04:13:51.633Z,18.85
2022-12-19T04:16:23.912Z,19.42
2022-12-19T04:19:05.663Z,19.00
2022-12-19T04:21:47.080Z,19.27
2022-12-19T04:24:18.811Z,19.30
2022-12-19T04:26:50.512Z,16.30
2022-12-19T04:29:20.133Z,17.92
2022-12-19T04:31:50.922Z,19.13
2022-12-19T04:34:27.924Z,18.92
2022-12-19T04:36:56.289Z,18.63
2022-12-19T04:39:26.265Z,19.55
2022-12-19T04:41:54.511Z,18.25
2022-12-19T04:44:24.038Z,19.65
2022-12-19T04:46:53.353Z,17.52
2022-12-19T04:49:20.739Z,18.73
2022-12-19T04:51:49.151Z,18.10
2022-12-19T04:54:22.797Z,16.08
2022-12-19T04:56:49.870Z,18.40
2022-12-19T04:59:22.730Z,19.80
2022-12-19T05:01:50.097Z,17.13
2022-12-19T05:04:18.811Z,13.48
2022-12-19T05:06:46.457Z,19.75
2022-12-19T05:10:12.074Z,18.10
2022-12-19T05:12:41.158Z,14.68
2022-12-19T05:15:12.219Z,17.77
2022-12-19T05:20:08.086Z,17.63
2022-12-19T05:22:37.977Z,15.25
2022-12-19T05:25:10.345Z,19.92
2022-12-19T05:27:39.630Z,18.85
2022-12-19T05:30:12.636Z,18.05
2022-12-19T05:32:39.628Z,15.75
2022-12-19T05:35:09.594Z,19.75
2022-12-19T05:37:36.504Z,18.75
2022-12-19T05:40:11.637Z,19.38
2022-12-19T05:42:44.633Z,20.15
2022-12-19T05:45:12.162Z,31.58
2022-12-19T05:47:39.161Z,32.67
2022-12-19T05:50:09.354Z,30.42
2022-12-19T05:52:36.955Z,22.73
2022-12-19T05:55:05.480Z,18.98
2022-12-19T05:57:34.234Z,21.13
2022-12-19T06:00:04.747Z,20.92
2022-12-19T06:02:32.792Z,21.58
2022-12-19T06:05:00.303Z,21.80
2022-12-19T06:07:27.131Z,25.20
2022-12-19T06:09:54.373Z,27.58
2022-12-19T06:12:21.373Z,28.63
2022-12-19T06:14:49.973Z,26.95
2022-12-19T06:17:16.999Z,27.47
2022-12-19T06:19:47.029Z,27.15
2022-12-19T06:22:13.962Z,24.35
2022-12-19T06:24:41.468Z,24.17
2022-12-19T06:27:08.434Z,23.23
2022-12-19T06:29:38.050Z,22.63
2022-12-19T06:32:09.068Z,22.33
2022-12-19T06:37:23.067Z,18.63
2022-12-19T06:39:50.625Z,19.67
2022-12-19T06:42:23.642Z,17.45
2022-12-19T06:44:52.068Z,17.73
2022-12-19T06:47:26.852Z,20.08
2022-12-19T06:49:58.214Z,21.05
2022-12-19T06:52:27.333Z,21.42
2022-12-19T06:54:56.356Z,21.23
2022-12-19T06:57:23.212Z,19.10
2022-12-19T06:59:50.520Z,19.70
2022-12-19T07:02:25.927Z,19.35
2022-12-19T07:05:01.845Z,18.27
2022-12-19T07:07:29.170Z,17.13
2022-12-19T07:09:56.467Z,18.92
2022-12-19T07:12:23.364Z,18.67
2022-12-19T07:14:53.566Z,16.98
2022-12-19T07:17:25.895Z,17.42
2022-12-19T07:19:57.190Z,17.27
2022-12-19T07:22:27.079Z,17.50
2022-12-19T07:24:57.586Z,17.80
2022-12-19T07:27:27.314Z,17.93
2022-12-19T07:29:59.033Z,16.65
2022-12-19T07:32:29.205Z,16.35
2022-12-19T07:35:00.565Z,16.13
2022-12-19T07:37:27.548Z,16.58
2022-12-19T07:39:57.313Z,17.48
2022-12-19T07:42:32.135Z,14.73
2022-12-19T07:44:59.834Z,17.15
2022-12-19T07:47:31.118Z,16.15
2022-12-19T07:50:05.662Z,17.88
2022-12-19T07:52:34.797Z,19.27
2022-12-19T07:55:02.338Z,20.27
2022-12-19T07:57:29.474Z,18.25
2022-12-19T07:59:58.137Z,17.42
2022-12-19T08:02:28.421Z,18.38
2022-12-19T08:04:59.883Z,17.90
2022-12-19T08:07:28.861Z,19.48
2022-12-19T08:09:56.154Z,18.40
2022-12-19T08:12:26.990Z,16.65
2022-12-19T08:14:57.319Z,14.85
2022-12-19T08:17:24.515Z,14.48
2022-12-19T08:19:52.005Z,15.60
2022-12-19T08:22:21.425Z,16.77
2022-12-19T08:24:50.342Z,14.57
2022-12-19T08:27:19.160Z,15.07
2022-12-19T08:29:47.259Z,14.73
2022-12-19T08:32:20.779Z,15.02
2022-12-19T08:34:49.507Z,14.55
2022-12-19T08:37:16.640Z,17.30
2022-12-19T08:39:46.426Z,16.23
2022-12-19T08:42:14.471Z,16.20
2022-12-19T08:44:41.676Z,10.10
2022-12-19T08:47:09.524Z,14.52
2022-12-19T08:49:41.809Z,14.80
2022-12-19T08:52:13.775Z,15.32
2022-12-19T08:54:41.008Z,15.88
2022-12-19T08:57:12.347Z,16.70
2022-12-19T08:59:41.852Z,15.80
2022-12-19T09:02:10.887Z,11.40
2022-12-19T09:06:00.037Z,15.73
2022-12-19T09:07:25.355Z,13.35
2022-12-19T09:09:54.132Z,14.93
2022-12-19T09:12:22.465Z,14.30
2022-12-19T09:14:49.906Z,16.08
2022-12-19T09:17:16.985Z,14.57
2022-12-19T09:19:45.497Z,15.52
2022-12-19T09:22:18.048Z,15.50
2022-12-19T09:24:50.509Z,16.08
2022-12-19T09:27:24.479Z,17.08
2022-12-19T09:29:59.081Z,15.20
2022-12-19T09:32:26.905Z,15.95
2022-12-19T09:34:54.111Z,14.18
2022-12-19T09:37:32.195Z,14.27
2022-12-19T09:39:59.518Z,15.95
2022-12-19T09:43:01.994Z,14.95
2022-12-19T09:45:40.443Z,14.52
2022-12-19T09:48:17.334Z,15.35
2022-12-19T09:51:10.089Z,14.23
2022-12-19T09:53:54.258Z,13.82
2022-12-19T09:56:46.232Z,16.05
2022-12-19T09:59:39.906Z,15.18
2022-12-19T10:02:23.902Z,12.63
2022-12-19T10:05:12.472Z,15.70
2022-12-19T10:08:07.515Z,12.77
2022-12-19T10:12:36.393Z,15.48
2022-12-19T10:14:01.758Z,16.85
2022-12-19T10:16:41.674Z,15.02
2022-12-19T10:19:12.314Z,15.82
2022-12-19T10:25:09.290Z,15.30
2022-12-19T10:27:59.698Z,14.43
2022-12-19T10:30:32.421Z,13.57
2022-12-19T10:33:20.750Z,14.15
2022-12-19T10:36:09.593Z,14.88
2022-12-19T10:38:46.796Z,15.50
2022-12-19T10:41:22.445Z,13.88
2022-12-19T10:43:59.220Z,13.80
2022-12-19T10:46:37.416Z,12.55
2022-12-19T10:49:19.200Z,15.80
2022-12-19T10:51:56.942Z,14.48
2022-12-19T10:54:33.397Z,15.50
2022-12-19T10:57:18.685Z,16.30
2022-12-19T11:00:07.257Z,15.27
2022-12-19T11:02:44.593Z,12.48
2022-12-19T11:05:40.291Z,13.38
2022-12-19T11:08:18.955Z,14.25
2022-12-19T11:11:57.680Z,12.55
2022-12-19T11:19:14.332Z,14.90
2022-12-19T11:22:14.309Z,13.70
2022-12-19T11:28:43.336Z,15.10
2022-12-19T11:30:05.170Z,14.90
2022-12-19T11:30:43.170Z,14.75
2022-12-19T11:30:47.660Z,14.43
2022-12-19T11:34:06.838Z,14.57
2022-12-19T11:36:39.743Z,14.07
2022-12-19T11:39:14.305Z,15.55
2022-12-19T11:42:10.475Z,14.50
2022-12-19T11:44:45.228Z,14.82
2022-12-19T11:47:25.554Z,14.10
2022-12-19T11:49:59.716Z,13.68
2022-12-19T11:55:39.809Z,13.73
2022-12-19T11:58:10.276Z,13.65
2022-12-19T12:00:45.480Z,13.07
2022-12-19T12:03:30.541Z,13.80
2022-12-19T12:05:58.528Z,14.90
2022-12-19T12:12:17.373Z,13.18
2022-12-19T12:19:05.191Z,14.00
2022-12-19T12:26:57.709Z,12.48
2022-12-19T12:31:00.412Z,12.60
2022-12-19T12:31:22.342Z,13.25
2022-12-19T12:32:04.826Z,14.23
2022-12-19T12:32:06.160Z,13.73
2022-12-19T12:32:06.163Z,14.32
2022-12-19T12:35:34.425Z,14.00
2022-12-19T12:38:52.222Z,12.85
2022-12-19T12:41:51.109Z,12.80
2022-12-19T12:44:18.242Z,12.75
2022-12-19T12:47:15.033Z,12.68
2022-12-19T12:50:03.454Z,12.60
2022-12-19T12:52:35.585Z,12.48
2022-12-19T12:55:04.794Z,13.07
2022-12-19T12:57:39.917Z,12.30
2022-12-19T13:00:19.667Z,13.00
2022-12-19T13:02:52.716Z,12.55
2022-12-19T13:05:39.402Z,13.30
2022-12-19T13:08:26.031Z,13.90
2022-12-19T13:10:57.133Z,11.75
2022-12-19T13:13:55.062Z,13.02
2022-12-19T13:16:55.798Z,12.90
2022-12-19T13:19:30.126Z,12.27
2022-12-19T13:22:21.830Z,12.93
2022-12-19T13:24:51.427Z,12.77
2022-12-19T13:27:48.390Z,13.20
2022-12-19T13:30:18.362Z,13.00
2022-12-19T13:33:12.105Z,11.93
2022-12-19T13:37:32.175Z,12.57
2022-12-19T13:39:54.507Z,13.35
2022-12-19T13:41:48.171Z,12.45
2022-12-19T13:44:22.452Z,10.80
2022-12-19T13:46:54.957Z,11.30
2022-12-19T13:49:30.441Z,13.02
2022-12-19T13:52:05.270Z,12.13
2022-12-19T13:54:38.182Z,12.60
2022-12-19T13:57:22.016Z,11.88
2022-12-19T13:59:59.679Z,14.00
2022-12-19T14:02:32.595Z,12.25
2022-12-19T14:05:22.356Z,11.82
2022-12-19T14:08:15.948Z,12.70
2022-12-19T14:11:39.486Z,11.57
2022-12-19T14:14:17.739Z,12.93
2022-12-19T14:16:52.992Z,11.82
2022-12-19T14:19:24.950Z,14.07
2022-12-19T14:22:05.173Z,13.77
2022-12-19T14:24:41.450Z,14.93
2022-12-19T14:28:18.783Z,14.52
2022-12-19T14:30:30.486Z,13.18
2022-12-19T14:33:43.818Z,13.93
2022-12-19T14:36:12.307Z,14.18
2022-12-19T14:39:23.966Z,14.35
2022-12-19T14:42:00.877Z,14.25
2022-12-19T14:52:25.274Z,14.57
2022-12-19T14:54:13.499Z,14.55
2022-12-19T14:54:15.329Z,15.20
2022-12-19T14:54:30.698Z,15.50
2022-12-19T14:56:43.768Z,14.82
2022-12-19T14:58:58.524Z,15.00
2022-12-19T15:01:28.008Z,14.88
2022-12-19T15:04:52.199Z,15.18
2022-12-19T15:07:07.808Z,17.60
2022-12-19T15:11:08.239Z,18.38
2022-12-19T15:14:54.988Z,17.10
2022-12-19T15:15:46.206Z,15.80
2022-12-19T15:18:20.573Z,16.63
2022-12-19T15:20:48.073Z,20.65
2022-12-19T15:23:19.933Z,19.10
2022-12-19T15:26:08.775Z,16.63
2022-12-19T15:28:41.139Z,15.65
2022-12-19T15:31:24.406Z,18.52
2022-12-19T15:34:33.030Z,15.90
2022-12-19T15:36:46.535Z,17.10
2022-12-19T15:39:15.085Z,19.48
2022-12-19T15:41:44.564Z,19.13
2022-12-19T15:44:16.560Z,39.55
2022-12-19T15:46:49.078Z,30.02
2022-12-19T15:49:18.202Z,23.98
2022-12-19T15:51:46.208Z,21.80
2022-12-19T15:57:01.044Z,18.67
2022-12-19T15:59:37.477Z,19.73
2022-12-19T16:02:23.248Z,17.75
2022-12-19T16:04:52.303Z,18.80
2022-12-19T16:07:25.284Z,16.73
2022-12-19T16:09:52.488Z,16.08
2022-12-19T16:12:25.139Z,17.13
2022-12-19T16:14:56.767Z,15.75
2022-12-19T16:17:32.136Z,15.90
2022-12-19T16:19:59.161Z,16.48
2022-12-19T16:22:33.103Z,16.50
2022-12-19T16:25:00.006Z,18.88
2022-12-19T16:27:33.936Z,17.35
2022-12-19T16:30:18.642Z,21.45
2022-12-19T16:32:50.725Z,21.90
2022-12-19T16:35:40.218Z,22.27
2022-12-19T16:38:09.957Z,21.05
2022-12-19T16:40:39.687Z,19.98
2022-12-19T16:43:15.568Z,18.17
2022-12-19T16:45:45.521Z,17.25
2022-12-19T16:48:20.645Z,18.58
2022-12-19T16:50:49.261Z,19.80
2022-12-19T16:53:20.003Z,19.85
2022-12-19T16:55:49.024Z,21.27
2022-12-19T16:58:21.560Z,19.80
2022-12-19T17:00:51.896Z,17.83
2022-12-19T17:03:28.385Z,17.05
2022-12-19T17:05:56.002Z,17.52
2022-12-19T17:08:23.557Z,19.40
2022-12-19T17:10:50.653Z,16.58
2022-12-19T17:13:17.961Z,17.85
2022-12-19T17:15:48.614Z,18.02
2022-12-19T17:18:33.252Z,17.05
2022-12-19T17:21:00.265Z,16.80
2022-12-19T17:23:31.016Z,18.05
2022-12-19T17:26:00.338Z,19.85
2022-12-19T17:28:28.713Z,19.30
2022-12-19T17:30:58.950Z,21.23
2022-12-19T17:33:46.615Z,20.10
2022-12-19T17:36:18.397Z,19.40
2022-12-19T17:38:48.600Z,17.15
2022-12-19T17:41:18.882Z,17.27
2022-12-19T17:43:46.437Z,15.10
2022-12-19T17:46:18.290Z,14.02
2022-12-19T17:51:23.297Z,14.02
2022-12-19T17:53:53.123Z,14.98
2022-12-19T17:56:20.883Z,14.80
2022-12-19T17:58:48.993Z,15.27
2022-12-19T18:01:20.278Z,14.95
2022-12-19T18:03:50.980Z,15.98
2022-12-19T18:06:18.564Z,19.33
2022-12-19T18:08:45.905Z,17.92
2022-12-19T18:11:18.809Z,16.90
2022-12-19T18:13:52.892Z,14.73
2022-12-19T18:16:24.042Z,19.63
2022-12-19T18:18:52.852Z,18.70
2022-12-19T18:21:22.136Z,18.00
2022-12-19T18:23:49.734Z,20.92
2022-12-19T18:26:18.913Z,15.48
2022-12-19T18:28:46.083Z,13.75
2022-12-19T18:31:18.254Z,12.88
2022-12-19T18:33:47.553Z,14.30
2022-12-19T18:36:22.277Z,14.52
2022-12-19T18:38:53.898Z,14.10
2022-12-19T18:41:26.224Z,13.70
2022-12-19T18:44:00.032Z,13.38
2022-12-19T18:46:28.482Z,12.10
2022-12-19T18:48:56.952Z,13.43
2022-12-19T18:51:27.923Z,14.48
2022-12-19T18:54:02.310Z,14.40
2022-12-19T18:56:29.993Z,13.38
2022-12-19T18:58:58.524Z,13.32
2022-12-19T19:01:46.707Z,15.45
2022-12-19T19:04:17.851Z,16.42
2022-12-19T19:06:51.486Z,18.48
2022-12-19T19:09:20.722Z,16.20
2022-12-19T19:11:47.674Z,14.88
2022-12-19T19:14:17.863Z,14.32
2022-12-19T19:16:47.996Z,14.38
2022-12-19T19:19:20.131Z,13.73
2022-12-19T19:21:54.010Z,14.65
2022-12-19T19:24:22.682Z,15.40
2022-12-19T19:26:52.117Z,15.07
2022-12-19T19:29:19.794Z,13.25
2022-12-19T19:31:48.731Z,13.85
2022-12-19T19:34:22.085Z,13.77
2022-12-19T19:36:54.912Z,13.50
2022-12-19T19:39:23.273Z,12.85
2022-12-19T19:41:53.779Z,12.73
2022-12-19T19:44:21.016Z,12.70
2022-12-19T19:46:51.387Z,13.50
2022-12-19T19:49:19.989Z,15.07
2022-12-19T19:51:52.376Z,15.27
2022-12-19T19:54:25.903Z,13.45
2022-12-19T19:56:53.035Z,13.80
2022-12-19T19:59:21.411Z,12.43
2022-12-19T20:01:54.324Z,12.38
2022-12-19T20:04:31.212Z,12.82
2022-12-19T20:06:59.563Z,11.77
2022-12-19T20:09:29.656Z,12.38
2022-12-19T20:11:57.314Z,11.55
2022-12-19T20:14:26.595Z,11.98
2022-12-19T20:16:56.560Z,11.27
2022-12-19T20:19:27.369Z,11.52
2022-12-19T20:21:57.472Z,9.85
2022-12-19T20:24:30.835Z,11.85
2022-12-19T20:27:00.998Z,12.95
2022-12-19T20:29:30.994Z,13.07
2022-12-19T20:31:58.091Z,14.23
2022-12-19T20:34:27.750Z,13.15
2022-12-19T20:36:57.569Z,12.38
2022-12-19T20:39:27.937Z,11.82
2022-12-19T20:41:57.836Z,12.63
2022-12-19T20:44:27.901Z,14.05
2022-12-19T20:46:55.857Z,12.32
2022-12-19T20:49:23.810Z,11.98
2022-12-19T20:51:50.849Z,11.27
2022-12-19T20:54:21.878Z,10.75
2022-12-19T20:56:49.266Z,9.13
2022-12-19T20:59:17.864Z,10.98
2022-12-19T21:01:47.155Z,10.48
2022-12-19T21:04:15.646Z,10.18
2022-12-19T21:06:47.600Z,10.55
2022-12-19T21:09:15.368Z,10.93
2022-12-19T21:11:42.364Z,12.00
2022-12-19T21:14:14.883Z,13.18
2022-12-19T21:16:46.346Z,12.35
2022-12-19T21:19:13.871Z,12.65
2022-12-19T21:21:46.476Z,13.35
2022-12-19T21:24:13.959Z,14.02
2022-12-19T21:26:45.141Z,13.43
2022-12-19T21:29:12.851Z,14.60
2022-12-19T21:31:42.965Z,13.20
2022-12-19T21:34:13.999Z,14.88
2022-12-19T21:36:40.838Z,20.98
2022-12-19T21:41:39.596Z,13.13
2022-12-19T21:44:09.359Z,9.88
2022-12-19T21:46:37.470Z,10.25
2022-12-19T21:49:08.731Z,10.75
2022-12-19T21:51:36.990Z,10.65
2022-12-19T21:54:05.068Z,10.45
2022-12-19T21:56:34.457Z,10.13
2022-12-19T21:59:04.854Z,9.93
2022-12-19T22:01:32.655Z,9.45
2022-12-19T22:04:06.266Z,10.40
2022-12-19T22:06:41.516Z,10.00
2022-12-19T22:09:15.398Z,12.57
2022-12-19T22:11:46.032Z,10.95
2022-12-19T22:14:16.444Z,10.82
2022-12-19T22:16:43.729Z,11.10
2022-12-19T22:19:13.999Z,13.73
2022-12-19T22:21:42.387Z,13.90
2022-12-19T22:24:11.847Z,13.13
2022-12-19T22:26:39.308Z,11.52
2022-12-19T22:29:08.388Z,11.82
2022-12-19T22:31:38.569Z,13.10
2022-12-19T22:34:13.745Z,13.57
2022-12-19T22:36:45.256Z,12.65
2022-12-19T22:41:41.800Z,11.55
2022-12-19T22:46:46.579Z,10.68
2022-12-19T22:49:14.284Z,11.90
2022-12-19T22:51:42.909Z,10.30
2022-12-19T22:54:12.906Z,11.65
2022-12-19T22:56:42.414Z,10.60
2022-12-19T22:59:14.641Z,11.55
2022-12-19T23:01:43.633Z,11.88
2022-12-19T23:04:21.440Z,11.23
2022-12-19T23:06:48.514Z,11.63
2022-12-19T23:09:22.053Z,12.63
2022-12-19T23:11:49.661Z,10.75
2022-12-19T23:14:19.740Z,10.68
2022-12-19T23:16:51.710Z,10.40
2022-12-19T23:19:25.067Z,10.52
2022-12-19T23:21:51.936Z,10.38
2022-12-19T23:24:24.457Z,9.98
2022-12-19T23:26:58.000Z,10.48
2022-12-19T23:29:25.522Z,8.40
2022-12-19T23:31:55.241Z,10.85
2022-12-19T23:34:27.953Z,9.43
2022-12-19T23:37:13.163Z,9.50
2022-12-19T23:39:44.253Z,10.27
2022-12-19T23:42:14.082Z,9.25
2022-12-19T23:44:41.294Z,9.88
2022-12-19T23:47:08.340Z,8.85
2022-12-19T23:49:38.849Z,9.27
2022-12-19T23:54:40.683Z,9.48
2022-12-19T23:57:10.277Z,9.57
2022-12-19T23:59:39.430Z,8.30
